createdAt,value
2022-11-12T00:00:07.424Z,99.99
2022-11-12T00:01:07.664Z,99.99
2022-11-12T00:02:07.522Z,99.99
2022-11-12T00:03:07.423Z,99.99
2022-11-12T00:04:07.949Z,99.99
2022-11-12T00:05:08.178Z,99.99
2022-11-12T00:06:07.419Z,99.99
2022-11-12T00:07:07.619Z,99.99
2022-11-12T00:08:07.699Z,99.99
2022-11-12T00:09:07.794Z,99.99
2022-11-12T00:10:07.455Z,99.99
2022-11-12T00:11:07.476Z,99.99
2022-11-12T00:12:07.464Z,99.99
2022-11-12T00:13:07.496Z,99.99
2022-11-12T00:14:07.626Z,99.99
2022-11-12T00:15:07.755Z,99.99
2022-11-12T00:16:08.199Z,99.99
2022-11-12T00:17:07.513Z,99.99
2022-11-12T00:18:07.952Z,99.99
2022-11-12T00:19:07.533Z,99.99
2022-11-12T00:20:08.033Z,99.99
2022-11-12T00:21:07.963Z,99.99
2022-11-12T00:22:07.584Z,99.99
2022-11-12T00:23:08.049Z,99.99
2022-11-12T00:24:08.340Z,99.99
2022-11-12T00:25:07.980Z,99.99
2022-11-12T00:26:07.556Z,99.99
2022-11-12T00:27:08.883Z,99.99
2022-11-12T00:28:07.589Z,99.99
2022-11-12T00:29:07.570Z,99.99
2022-11-12T00:30:07.616Z,99.99
2022-11-12T00:31:07.619Z,99.99
2022-11-12T00:32:07.606Z,99.99
2022-11-12T00:33:07.600Z,99.99
2022-11-12T00:34:07.609Z,99.99
2022-11-12T00:35:13.604Z,99.99
2022-11-12T00:36:08.124Z,99.99
2022-11-12T00:37:07.903Z,99.99
2022-11-12T00:38:07.678Z,99.99
2022-11-12T00:39:07.655Z,99.99
2022-11-12T00:40:07.672Z,99.99
2022-11-12T00:41:07.691Z,99.99
2022-11-12T00:42:07.761Z,99.99
2022-11-12T00:43:08.160Z,99.99
2022-11-12T00:44:07.984Z,99.99
2022-11-12T00:45:07.950Z,99.99
2022-11-12T00:46:07.720Z,99.99
2022-11-12T00:47:07.972Z,99.99
2022-11-12T00:48:07.722Z,99.99
2022-11-12T00:49:07.749Z,99.99
2022-11-12T00:50:07.731Z,99.99
2022-11-12T00:51:08.079Z,99.99
2022-11-12T00:52:08.236Z,99.99
2022-11-12T00:53:07.958Z,99.99
2022-11-12T00:54:08.035Z,99.99
2022-11-12T00:55:08.029Z,99.99
2022-11-12T00:56:08.568Z,99.99
2022-11-12T00:57:07.761Z,99.99
2022-11-12T00:58:08.766Z,99.99
2022-11-12T00:59:08.082Z,99.99
2022-11-12T01:00:07.785Z,99.99
2022-11-12T01:01:08.872Z,99.99
2022-11-12T01:02:07.863Z,99.99
2022-11-12T01:03:08.252Z,99.99
2022-11-12T01:04:07.922Z,99.99
2022-11-12T01:05:07.923Z,99.99
2022-11-12T01:06:07.935Z,99.99
2022-11-12T01:07:08.075Z,99.99
2022-11-12T01:08:08.353Z,99.99
2022-11-12T01:09:07.940Z,99.99
2022-11-12T01:10:07.941Z,99.99
2022-11-12T01:11:09.053Z,99.99
2022-11-12T06:01:39.092Z,99.99
2022-11-12T06:02:38.434Z,99.99
2022-11-12T06:03:38.333Z,99.99
2022-11-12T06:04:38.585Z,99.99
2022-11-12T06:05:38.317Z,99.99
2022-11-12T06:06:38.414Z,99.99
2022-11-12T06:07:38.444Z,99.99
2022-11-12T06:08:38.467Z,99.99
2022-11-12T06:09:38.828Z,99.99
2022-11-12T06:10:38.357Z,99.99
2022-11-12T06:11:39.049Z,99.99
2022-11-12T06:12:38.618Z,99.99
2022-11-12T06:13:38.465Z,99.99
2022-11-12T06:14:38.459Z,99.99
2022-11-12T06:15:42.057Z,99.99
2022-11-12T06:16:38.437Z,99.99
2022-11-12T06:17:38.947Z,99.99
2022-11-12T06:18:38.391Z,99.99
2022-11-12T06:19:38.707Z,99.99
2022-11-12T06:20:38.849Z,99.99
2022-11-12T06:21:38.802Z,99.99
2022-11-12T06:22:38.415Z,99.99
2022-11-12T06:23:38.721Z,99.99
2022-11-12T06:24:38.475Z,99.99
2022-11-12T06:25:38.459Z,99.99
2022-11-12T06:26:38.583Z,99.99
2022-11-12T06:27:38.437Z,99.99
2022-11-12T06:28:38.592Z,99.99
2022-11-12T06:29:38.530Z,99.99
2022-11-12T06:30:38.531Z,99.99
2022-11-12T06:31:38.754Z,99.99
2022-11-12T06:32:38.512Z,99.99
2022-11-12T06:33:39.312Z,99.99
2022-11-12T06:34:38.477Z,99.99
2022-11-12T06:35:44.788Z,99.99
2022-11-12T06:36:38.588Z,99.99
2022-11-12T06:37:38.746Z,99.99
2022-11-12T06:38:39.094Z,99.99
2022-11-12T06:39:38.617Z,99.99
2022-11-12T06:40:38.613Z,99.99
2022-11-12T06:41:38.505Z,99.99
2022-11-12T06:42:38.769Z,99.99
2022-11-12T06:43:38.549Z,99.99
2022-11-12T06:44:38.616Z,99.99
2022-11-12T06:45:38.560Z,99.99
2022-11-12T06:46:38.679Z,99.99
2022-11-12T06:47:38.779Z,99.99
2022-11-12T06:48:38.529Z,99.99
2022-11-12T06:49:39.109Z,99.99
2022-11-12T06:50:38.679Z,99.99
2022-11-12T06:51:38.653Z,99.99
2022-11-12T06:52:38.791Z,99.99
2022-11-12T06:53:38.536Z,99.99
2022-11-12T06:54:38.596Z,99.99
2022-11-12T06:55:38.797Z,99.99
2022-11-12T06:56:38.859Z,99.99
2022-11-12T06:57:38.945Z,99.99
2022-11-12T06:58:38.698Z,99.99
2022-11-12T06:59:38.604Z,99.99
2022-11-12T07:00:38.929Z,99.99
2022-11-12T07:01:39.501Z,99.99
2022-11-12T07:02:38.883Z,99.99
2022-11-12T07:03:38.606Z,99.99
2022-11-12T07:04:38.905Z,99.99
2022-11-12T07:05:39.280Z,99.99
2022-11-12T07:06:38.752Z,99.99
2022-11-12T07:07:38.721Z,99.99
2022-11-12T07:08:39.066Z,99.99
2022-11-12T07:09:38.925Z,99.99
2022-11-12T07:10:38.659Z,99.99
2022-11-12T07:11:39.534Z,99.99
2022-11-12T07:12:38.776Z,99.99
2022-11-12T07:13:38.641Z,99.99
2022-11-12T07:14:38.922Z,99.99
2022-11-12T07:15:38.679Z,99.99
2022-11-12T07:16:38.766Z,99.99
2022-11-12T07:17:38.757Z,99.99
2022-11-12T07:18:38.687Z,99.99
2022-11-12T07:19:38.688Z,99.99
2022-11-12T07:20:38.686Z,99.99
2022-11-12T07:21:39.210Z,99.99
2022-11-12T07:22:38.807Z,99.99
2022-11-12T07:23:38.924Z,99.99
2022-11-12T07:24:38.814Z,99.99
2022-11-12T07:25:38.767Z,99.99
2022-11-12T07:26:41.889Z,99.99
2022-11-12T07:27:39.185Z,99.99
2022-11-12T07:28:38.844Z,99.99
2022-11-12T07:29:50.601Z,99.99
2022-11-12T07:30:38.842Z,99.99
2022-11-12T07:31:39.039Z,99.99
2022-11-12T07:32:50.902Z,99.99
2022-11-12T07:33:39.195Z,99.99
2022-11-12T07:34:38.761Z,99.99
2022-11-12T07:35:39.331Z,99.99
2022-11-12T07:36:38.935Z,99.99
2022-11-12T07:37:39.305Z,99.99
2022-11-12T07:38:38.779Z,99.99
2022-11-12T07:39:38.920Z,99.99
2022-11-12T07:40:38.808Z,99.99
2022-11-12T07:41:38.810Z,99.99
2022-11-12T07:42:39.694Z,99.99
2022-11-12T07:43:39.510Z,99.99
2022-11-12T07:44:38.923Z,99.99
2022-11-12T07:45:38.863Z,99.99
2022-11-12T07:46:39.106Z,99.99
2022-11-12T07:47:39.171Z,99.99
2022-11-12T07:48:38.949Z,99.99
2022-11-12T07:49:39.096Z,99.99
2022-11-12T07:50:38.967Z,99.99
2022-11-12T07:51:39.288Z,99.99
2022-11-12T07:52:38.949Z,99.99
2022-11-12T07:53:39.359Z,99.99
2022-11-12T07:54:38.936Z,99.99
2022-11-12T07:55:38.905Z,99.99
2022-11-12T07:56:38.904Z,99.99
2022-11-12T07:57:38.899Z,99.99
2022-11-12T07:58:38.932Z,99.99
2022-11-12T07:59:46.212Z,99.99
2022-11-12T08:00:39.165Z,99.99
2022-11-12T08:01:39.015Z,99.99
2022-11-12T08:02:38.946Z,99.99
2022-11-12T08:03:39.292Z,99.99
2022-11-12T08:04:38.967Z,99.99
2022-11-12T08:05:38.951Z,99.99
2022-11-12T08:06:39.253Z,99.99
2022-11-12T08:07:39.431Z,99.99
2022-11-12T08:08:39.235Z,99.99
2022-11-12T08:09:39.486Z,99.99
2022-11-12T08:10:39.009Z,99.99
2022-11-12T08:11:38.985Z,99.99
2022-11-12T08:12:39.038Z,99.99
2022-11-12T08:13:39.009Z,99.99
2022-11-12T08:14:39.009Z,99.99
2022-11-12T08:15:39.312Z,99.99
2022-11-12T08:16:39.276Z,99.99
2022-11-12T08:17:39.034Z,99.99
2022-11-12T08:18:39.280Z,99.99
2022-11-12T08:19:39.313Z,99.99
2022-11-12T08:20:39.042Z,99.99
2022-11-12T08:21:39.060Z,99.99
2022-11-12T08:22:39.328Z,99.99
2022-11-12T08:23:39.340Z,99.99
2022-11-12T08:24:39.080Z,99.99
2022-11-12T08:25:39.717Z,99.99
2022-11-12T08:26:39.109Z,99.99
2022-11-12T08:27:39.366Z,99.99
2022-11-12T08:28:39.156Z,99.99
2022-11-12T08:29:39.114Z,99.99
2022-11-12T08:30:39.122Z,99.99
2022-11-12T08:31:39.148Z,99.99
2022-11-12T08:32:39.258Z,99.99
2022-11-12T08:33:39.411Z,99.99
2022-11-12T08:34:39.156Z,99.99
2022-11-12T08:35:39.179Z,99.07
2022-11-12T08:36:39.628Z,98.79
2022-11-12T08:37:39.174Z,98.69
2022-11-12T08:38:39.590Z,99.26
2022-11-12T08:39:39.215Z,98.69
2022-11-12T08:40:39.563Z,98.12
2022-11-12T08:41:39.732Z,98.5
2022-11-12T08:42:39.297Z,98.93
2022-11-12T08:43:39.251Z,98.45
2022-11-12T08:44:39.258Z,97.78
2022-11-12T08:45:39.276Z,95.12
2022-11-12T08:46:39.279Z,95.51
2022-11-12T08:47:39.267Z,96.08
2022-11-12T08:48:39.534Z,94.93
2022-11-12T08:49:42.562Z,92.66
2022-11-12T08:50:39.299Z,93.18
2022-11-12T08:51:39.562Z,93.65
2022-11-12T08:52:39.566Z,93.55
2022-11-12T08:53:39.320Z,92.41
2022-11-12T08:54:39.333Z,91.66
2022-11-12T08:55:39.596Z,90.42
2022-11-12T08:56:39.613Z,87.38
2022-11-12T08:57:39.851Z,88.37
2022-11-12T08:58:39.652Z,88.09
2022-11-12T08:59:39.632Z,87.99
2022-11-12T09:00:39.391Z,87.04
2022-11-12T09:01:39.758Z,86.57
2022-11-12T09:02:39.615Z,87.13
2022-11-12T09:03:39.770Z,87.04
2022-11-12T09:04:39.556Z,86.13
2022-11-12T09:05:39.477Z,86.04
2022-11-12T09:06:39.602Z,85.85
2022-11-12T09:07:52.302Z,86.32
2022-11-12T09:08:39.584Z,84.7
2022-11-12T09:09:39.806Z,84.13
2022-11-12T09:10:39.781Z,83.94
2022-11-12T09:11:39.657Z,83.94
2022-11-12T09:12:39.521Z,84.33
2022-11-12T09:13:40.549Z,84.33
2022-11-12T09:14:39.552Z,84.27
2022-11-12T09:15:41.030Z,83.61
2022-11-12T09:16:39.571Z,83.51
2022-11-12T09:17:39.858Z,81.23
2022-11-12T09:18:39.656Z,81.41
2022-11-12T09:19:45.211Z,80.36
2022-11-12T09:20:39.593Z,80.75
2022-11-12T09:21:39.852Z,81.51
2022-11-12T09:22:39.623Z,82.12
2022-11-12T09:23:39.633Z,81.51
2022-11-12T09:24:39.638Z,82.12
2022-11-12T09:25:39.653Z,82.69
2022-11-12T09:26:39.906Z,81.93
2022-11-12T09:27:43.151Z,82.03
2022-11-12T09:28:39.759Z,81.17
2022-11-12T09:29:40.186Z,80.98
2022-11-12T09:30:39.701Z,81.46
2022-11-12T09:31:39.969Z,81.55
2022-11-12T09:32:39.994Z,81.36
2022-11-12T09:33:39.758Z,80.88
2022-11-12T09:34:40.006Z,81.84
2022-11-12T09:35:40.015Z,80.88
2022-11-12T09:36:42.516Z,81.07
2022-11-12T09:37:39.983Z,80.41
2022-11-12T09:38:40.050Z,80.88
2022-11-12T09:39:40.312Z,80.02
2022-11-12T09:40:39.808Z,80.88
2022-11-12T09:41:40.226Z,80.98
2022-11-12T09:42:40.150Z,78.98
2022-11-12T09:43:40.221Z,79.83
2022-11-12T09:44:39.983Z,79.64
2022-11-12T09:45:40.545Z,78.69
2022-11-12T09:46:43.561Z,77.93
2022-11-12T09:47:43.584Z,77.26
2022-11-12T09:48:43.877Z,78.59
2022-11-12T09:49:43.832Z,79.07
2022-11-12T09:50:43.590Z,77.93
2022-11-12T09:51:43.600Z,78.12
2022-11-12T09:52:43.867Z,78.88
2022-11-12T09:53:46.817Z,78.03
2022-11-12T09:54:43.896Z,79.07
2022-11-12T09:55:43.644Z,80.07
2022-11-12T09:56:44.138Z,79.93
2022-11-12T09:57:43.935Z,79.59
2022-11-12T09:58:43.681Z,79.4
2022-11-12T09:59:43.959Z,78.83
2022-11-12T10:00:47.623Z,79.78
2022-11-12T10:01:43.815Z,78.92
2022-11-12T10:02:43.725Z,78.54
2022-11-12T10:03:44.003Z,78.92
2022-11-12T10:04:43.760Z,78.44
2022-11-12T10:05:43.766Z,78.06
2022-11-12T10:06:44.206Z,75.87
2022-11-12T10:07:43.787Z,77.11
2022-11-12T10:08:44.069Z,77.15
2022-11-12T10:09:44.107Z,75.91
2022-11-12T10:10:43.827Z,76.96
2022-11-12T10:11:44.095Z,74.96
2022-11-12T10:12:44.119Z,73.81
2022-11-12T10:13:43.885Z,75.24
2022-11-12T10:14:44.061Z,75.91
2022-11-12T10:15:43.925Z,74.67
2022-11-12T10:16:44.395Z,75.53
2022-11-12T10:17:43.912Z,76.57
2022-11-12T10:18:43.966Z,76.67
2022-11-12T10:19:43.945Z,76.2
2022-11-12T10:20:43.950Z,76.01
2022-11-12T10:21:43.968Z,75.62
2022-11-12T10:22:43.981Z,74.1
2022-11-12T10:23:44.274Z,73.66
2022-11-12T10:24:44.256Z,75.37
2022-11-12T10:25:44.274Z,75.85
2022-11-12T10:26:44.030Z,76.04
2022-11-12T10:27:44.307Z,76.62
2022-11-12T10:28:44.402Z,75.66
2022-11-12T10:29:44.335Z,75.28
2022-11-12T10:30:44.094Z,75.37
2022-11-12T10:31:44.358Z,75.18
2022-11-12T10:32:44.609Z,74.71
2022-11-12T10:33:44.142Z,74.23
2022-11-12T10:34:44.416Z,72.51
2022-11-12T10:35:44.411Z,71.27
2022-11-12T10:36:44.372Z,71.66
2022-11-12T10:37:44.493Z,73.18
2022-11-12T10:38:44.240Z,73.56
2022-11-12T10:39:44.252Z,74.9
2022-11-12T10:40:44.237Z,72.99
2022-11-12T10:41:44.253Z,72.23
2022-11-12T10:42:44.271Z,72.8
2022-11-12T10:43:44.275Z,73.75
2022-11-12T10:44:44.279Z,73.37
2022-11-12T10:45:44.294Z,73.18
2022-11-12T10:46:44.316Z,70.61
2022-11-12T10:47:44.329Z,71.12
2022-11-12T10:48:44.844Z,71.21
2022-11-12T10:49:44.392Z,70.26
2022-11-12T10:50:44.536Z,69.59
2022-11-12T10:51:44.471Z,70.83
2022-11-12T10:52:44.508Z,70.36
2022-11-12T10:53:44.511Z,71.31
2022-11-12T10:54:44.738Z,71.21
2022-11-12T10:55:44.433Z,71.5
2022-11-12T10:56:44.446Z,71.12
2022-11-12T10:57:44.730Z,69.49
2022-11-12T10:58:44.503Z,67.62
2022-11-12T10:59:44.764Z,67.01
2022-11-12T11:00:44.828Z,67.3
2022-11-12T11:01:48.161Z,66.53
2022-11-12T11:02:44.882Z,67.21
2022-11-12T11:03:44.955Z,67.68
2022-11-12T11:04:45.137Z,69.4
2022-11-12T11:05:44.837Z,66.95
2022-11-12T11:06:44.904Z,67.81
2022-11-12T11:07:44.612Z,66.47
2022-11-12T11:08:44.660Z,66.56
2022-11-12T11:09:44.636Z,67.43
2022-11-12T11:10:44.686Z,66.09
2022-11-12T11:11:44.735Z,65.8
2022-11-12T11:12:44.856Z,67.24
2022-11-12T11:13:44.833Z,67.05
2022-11-12T11:14:44.816Z,66.76
2022-11-12T11:15:44.727Z,67.62
2022-11-12T11:16:45.022Z,67.05
2022-11-12T11:17:44.744Z,66.66
2022-11-12T11:18:44.796Z,66.85
2022-11-12T11:19:45.044Z,66.89
2022-11-12T11:20:45.294Z,66.6
2022-11-12T11:21:47.240Z,65.17
2022-11-12T11:22:44.834Z,66.03
2022-11-12T11:23:44.861Z,64.78
2022-11-12T11:24:44.861Z,64.69
2022-11-12T11:25:44.872Z,64.78
2022-11-12T11:26:44.888Z,65.26
2022-11-12T11:27:45.639Z,64.59
2022-11-12T11:28:44.914Z,64.31
2022-11-12T11:29:44.965Z,64.62
2022-11-12T11:30:45.208Z,64.62
2022-11-12T11:31:44.953Z,64.72
2022-11-12T11:32:44.968Z,63.96
2022-11-12T11:33:45.252Z,64.25
2022-11-12T11:34:44.995Z,63.96
2022-11-12T11:35:45.018Z,63.67
2022-11-12T11:36:45.553Z,63.48
2022-11-12T11:37:45.306Z,63.86
2022-11-12T11:38:45.328Z,62.81
2022-11-12T11:39:45.070Z,62.71
2022-11-12T11:40:45.349Z,62.71
2022-11-12T11:41:45.361Z,62.71
2022-11-12T11:42:45.390Z,62.9
2022-11-12T11:43:45.777Z,62.52
2022-11-12T11:44:45.165Z,63.26
2022-11-12T11:45:45.163Z,62.9
2022-11-12T11:46:45.975Z,62.43
2022-11-12T11:48:02.831Z,62.71
2022-11-12T11:48:45.409Z,62.14
2022-11-12T11:49:45.246Z,62.24
2022-11-12T11:50:46.110Z,62.87
2022-11-12T11:51:45.481Z,62.68
2022-11-12T11:52:45.779Z,63.73
2022-11-12T11:53:45.322Z,63.07
2022-11-12T11:54:45.318Z,63.45
2022-11-12T11:55:45.392Z,63.54
2022-11-12T11:56:45.387Z,63.93
2022-11-12T11:57:45.425Z,63.93
2022-11-12T11:58:45.571Z,62.78
2022-11-12T11:59:45.528Z,63.83
2022-11-12T12:00:45.657Z,63.64
2022-11-12T12:01:45.494Z,63.73
2022-11-12T12:02:45.913Z,63.73
2022-11-12T12:03:46.203Z,64.88
2022-11-12T12:04:45.460Z,64.5
2022-11-12T12:05:46.654Z,65.45
2022-11-12T12:06:45.648Z,64.98
2022-11-12T12:07:45.510Z,65.17
2022-11-12T12:08:46.233Z,65.17
2022-11-12T12:09:46.147Z,65.84
2022-11-12T12:11:10.007Z,65.26
2022-11-12T12:11:46.067Z,65.36
2022-11-12T12:12:45.754Z,66.13
2022-11-12T12:13:45.763Z,65.84
2022-11-12T12:14:45.618Z,65.61
2022-11-12T12:15:45.640Z,66.19
2022-11-12T12:16:45.658Z,65.8
2022-11-12T12:17:45.652Z,65.61
2022-11-12T12:18:45.681Z,64.94
2022-11-12T12:19:45.932Z,64.65
2022-11-12T12:20:45.702Z,65.61
2022-11-12T12:21:45.724Z,66.19
2022-11-12T12:22:45.732Z,66.19
2022-11-12T12:23:45.999Z,66.95
2022-11-12T12:24:46.255Z,66.47
2022-11-12T12:25:46.642Z,66.19
2022-11-12T12:26:45.798Z,66.79
2022-11-12T12:27:45.817Z,66.13
2022-11-12T12:28:45.829Z,65.17
2022-11-12T12:29:45.849Z,66.13
2022-11-12T12:30:45.859Z,66.03
2022-11-12T12:31:45.868Z,65.93
2022-11-12T12:32:45.908Z,65.17
2022-11-12T12:33:45.922Z,65.84
2022-11-12T12:34:45.921Z,65.64
2022-11-12T12:35:46.221Z,64.59
2022-11-12T12:36:45.962Z,65.17
2022-11-12T12:37:46.064Z,64.98
2022-11-12T12:38:46.123Z,65.55
2022-11-12T12:39:50.340Z,65.17
2022-11-12T12:40:46.393Z,65.87
2022-11-12T12:41:46.070Z,65.39
2022-11-12T12:42:46.084Z,64.53
2022-11-12T12:43:46.058Z,62.14
2022-11-12T12:44:46.088Z,62.65
2022-11-12T12:45:46.109Z,61.22
2022-11-12T12:46:46.613Z,60.19
2022-11-12T12:47:46.389Z,59.33
2022-11-12T12:48:46.157Z,59.27
2022-11-12T12:49:46.179Z,58.34
2022-11-12T12:50:46.205Z,57.09
2022-11-12T12:51:47.076Z,54.34
2022-11-12T12:52:46.219Z,54.05
2022-11-12T12:53:46.250Z,53.89
2022-11-12T12:54:46.673Z,52.74
2022-11-12T12:55:46.416Z,52.74
2022-11-12T12:56:46.796Z,52.76
2022-11-12T12:57:46.316Z,51.04
2022-11-12T12:58:46.420Z,50.49
2022-11-12T12:59:46.663Z,49.05
2022-11-12T13:00:46.832Z,47.8
2022-11-12T13:01:46.437Z,48.76
2022-11-12T13:02:46.430Z,48.79
2022-11-12T13:03:46.480Z,46.98
2022-11-12T13:04:46.471Z,46.69
2022-11-12T13:05:46.505Z,45.76
2022-11-12T13:06:46.694Z,45.95
2022-11-12T13:07:46.545Z,44.43
2022-11-12T13:08:46.564Z,43.88
2022-11-12T13:09:46.580Z,42.16
2022-11-12T13:10:46.794Z,41.99
2022-11-12T13:11:46.982Z,40.28
2022-11-12T13:12:47.009Z,39.91
2022-11-12T13:13:46.779Z,38.1
2022-11-12T13:14:46.876Z,36.94
2022-11-12T13:15:46.792Z,37.04
2022-11-12T13:16:46.776Z,37.81
2022-11-12T13:17:46.805Z,38.1
2022-11-12T13:18:47.231Z,38.76
2022-11-12T13:19:46.918Z,39.89
2022-11-12T13:20:46.884Z,40.74
2022-11-12T13:21:47.084Z,40.8
2022-11-12T13:22:46.963Z,42.32
2022-11-12T13:23:46.981Z,44.1
2022-11-12T13:24:46.932Z,45.32
2022-11-12T13:25:46.945Z,46.36
2022-11-12T13:26:47.025Z,46.62
2022-11-12T13:27:47.179Z,48.16
2022-11-12T13:28:47.375Z,48.13
2022-11-12T13:29:47.064Z,49
2022-11-12T13:30:47.004Z,49.16
2022-11-12T13:31:47.025Z,50.41
2022-11-12T13:32:47.058Z,49.84
2022-11-12T13:33:47.069Z,51.15
2022-11-12T13:34:47.083Z,51.34
2022-11-12T13:35:47.307Z,51.99
2022-11-12T13:36:47.601Z,52.66
2022-11-12T13:37:47.152Z,52.66
2022-11-12T13:38:47.155Z,54
2022-11-12T13:39:47.189Z,54.28
2022-11-12T13:40:47.210Z,54.26
2022-11-12T13:41:47.241Z,54.26
2022-11-12T13:42:47.273Z,54.83
2022-11-12T13:43:47.421Z,55.31
2022-11-12T13:44:49.951Z,55.6
2022-11-12T13:45:47.314Z,55.47
2022-11-12T13:46:47.326Z,55.76
2022-11-12T13:47:47.323Z,56.72
2022-11-12T13:48:47.340Z,57.2
2022-11-12T13:49:47.346Z,57.97
2022-11-12T13:50:47.368Z,59.08
2022-11-12T13:51:47.384Z,59.56
2022-11-12T13:52:47.623Z,59.66
2022-11-12T13:53:47.426Z,59.66
2022-11-12T13:54:47.436Z,59.84
2022-11-12T13:55:47.499Z,60.13
2022-11-12T13:56:47.480Z,60.23
2022-11-12T13:57:47.535Z,60.52
2022-11-12T14:00:34.580Z,62.59
2022-11-12T14:01:33.953Z,62.97
2022-11-12T14:02:36.855Z,62.78
2022-11-12T14:03:33.931Z,62.87
2022-11-12T14:04:33.962Z,62.78
2022-11-12T14:05:33.981Z,63.45
2022-11-12T14:06:34.060Z,65.07
2022-11-12T14:07:34.101Z,65.52
2022-11-12T14:08:34.131Z,65.61
2022-11-12T14:09:34.107Z,66.19
2022-11-12T14:10:34.046Z,66.66
2022-11-12T14:11:34.056Z,67.24
2022-11-12T14:12:34.067Z,67.81
2022-11-12T14:13:34.090Z,67.43
2022-11-12T14:14:34.107Z,68.1
2022-11-12T14:15:34.120Z,68.82
2022-11-12T14:16:34.666Z,69.49
2022-11-12T14:17:34.398Z,70.07
2022-11-12T14:18:34.147Z,70.45
2022-11-12T14:19:34.159Z,71.41
2022-11-12T14:20:34.172Z,72.07
2022-11-12T14:21:34.447Z,71.98
2022-11-12T14:22:34.633Z,72.13
2022-11-12T14:23:34.651Z,71.56
2022-11-12T14:24:34.242Z,70.98
2022-11-12T14:25:34.505Z,71.75
2022-11-12T14:26:34.526Z,72.71
2022-11-12T14:27:34.535Z,72.32
2022-11-12T14:28:34.315Z,72.03
2022-11-12T14:29:43.482Z,72.51
2022-11-12T14:30:34.791Z,72.89
2022-11-12T14:31:34.620Z,72.61
2022-11-12T14:32:34.843Z,73.75
2022-11-12T14:33:34.362Z,73.66
2022-11-12T14:34:34.376Z,73.47
2022-11-12T14:35:34.651Z,73.56
2022-11-12T14:36:34.404Z,73.85
2022-11-12T14:37:36.379Z,73.94
2022-11-12T14:38:34.454Z,74.52
2022-11-12T14:39:34.444Z,74.77
2022-11-12T14:40:34.449Z,75.15
2022-11-12T14:41:34.724Z,75.62
2022-11-12T14:42:34.483Z,75.72
2022-11-12T14:43:34.485Z,76.01
2022-11-12T14:44:34.504Z,76.2
2022-11-12T14:45:37.472Z,76.16
2022-11-12T14:46:34.542Z,77.11
2022-11-12T14:47:34.789Z,77.4
2022-11-12T14:48:35.080Z,77.87
2022-11-12T14:49:34.559Z,78.35
2022-11-12T14:50:41.678Z,78.59
2022-11-12T14:51:34.586Z,78.88
2022-11-12T14:52:34.673Z,78.98
2022-11-12T14:53:35.267Z,79.27
2022-11-12T14:54:34.634Z,79.46
2022-11-12T14:55:34.919Z,79.55
2022-11-12T14:56:37.953Z,79.46
2022-11-12T14:57:35.204Z,79.8
2022-11-12T14:58:35.166Z,79.8
2022-11-12T14:59:34.959Z,80.46
2022-11-12T15:00:35.087Z,81.32
2022-11-12T15:03:05.452Z,81.85
2022-11-12T15:04:05.791Z,82.32
2022-11-12T15:05:05.556Z,81.47
2022-11-12T15:06:05.558Z,81.85
2022-11-12T15:07:05.527Z,81.85
2022-11-12T15:08:05.382Z,82.04
2022-11-12T15:09:05.431Z,82.14
2022-11-12T15:10:05.498Z,82.04
2022-11-12T15:11:05.650Z,83.04
2022-11-12T15:12:05.387Z,83.71
2022-11-12T15:13:05.657Z,84.47
2022-11-12T15:14:05.684Z,84.85
2022-11-12T15:15:05.420Z,84.95
2022-11-12T15:16:05.900Z,85.8
2022-11-12T15:17:05.778Z,86.43
2022-11-12T15:18:05.447Z,86.24
2022-11-12T15:19:05.468Z,85.95
2022-11-12T15:20:06.029Z,86.33
2022-11-12T15:21:05.735Z,86.24
2022-11-12T15:22:05.491Z,87.19
2022-11-12T15:23:05.490Z,86.9
2022-11-12T15:24:05.520Z,86.52
2022-11-12T15:25:05.835Z,86.52
2022-11-12T15:26:05.526Z,86.8
2022-11-12T15:27:05.615Z,86.76
2022-11-12T15:28:05.813Z,87.52
2022-11-12T15:29:05.580Z,88.47
2022-11-12T15:30:05.555Z,89.23
2022-11-12T15:31:05.590Z,89.23
2022-11-12T15:32:09.768Z,88.76
2022-11-12T15:33:05.600Z,89.42
2022-11-12T15:34:06.347Z,88.76
2022-11-12T15:35:06.244Z,88.47
2022-11-12T15:36:06.124Z,88.24
2022-11-12T15:37:05.639Z,88.19
2022-11-12T15:38:05.950Z,88.05
2022-11-12T15:39:05.935Z,88.81
2022-11-12T15:40:05.653Z,88.9
2022-11-12T15:41:05.921Z,88.62
2022-11-12T15:42:05.683Z,89.86
2022-11-12T15:43:05.709Z,90.23
2022-11-12T15:44:05.748Z,90.99
2022-11-12T15:45:05.779Z,92.56
2022-11-12T15:46:05.808Z,93.6
2022-11-12T15:47:05.753Z,93.23
2022-11-12T15:48:05.735Z,93.32
2022-11-12T15:49:05.729Z,92.09
2022-11-12T15:50:05.750Z,92.18
2022-11-12T15:51:06.012Z,92.66
2022-11-12T15:52:06.254Z,93.32
2022-11-12T15:53:06.073Z,92.94
2022-11-12T15:54:05.818Z,93.51
2022-11-12T15:55:05.869Z,94.56
2022-11-12T15:56:05.817Z,94.46
2022-11-12T15:57:05.820Z,93.8
2022-11-12T15:58:05.875Z,93.6
2022-11-12T15:59:05.872Z,94.56
2022-11-12T16:00:10.958Z,94.65
2022-11-12T16:01:06.035Z,94.65
2022-11-12T16:02:05.859Z,94.08
2022-11-12T16:03:05.908Z,94.51
2022-11-12T16:04:05.894Z,94.03
2022-11-12T16:05:05.901Z,95.84
2022-11-12T16:06:11.319Z,97.17
2022-11-12T16:07:05.999Z,97.17
2022-11-12T16:08:07.042Z,96.97
2022-11-12T16:09:05.933Z,95.93
2022-11-12T16:10:05.941Z,95.27
2022-11-12T16:11:05.960Z,95.27
2022-11-12T16:12:06.096Z,96.41
2022-11-12T16:13:06.001Z,96.59
2022-11-12T16:14:05.981Z,96.31
2022-11-12T16:15:05.985Z,96.78
2022-11-12T16:16:06.221Z,98.68
2022-11-12T16:17:05.987Z,99.99
2022-11-12T16:18:06.004Z,99.99
2022-11-12T16:19:06.039Z,99.99
2022-11-12T16:20:06.028Z,99.99
2022-11-12T16:21:06.032Z,99.44
2022-11-12T16:22:06.033Z,99.44
2022-11-12T16:23:06.036Z,99.44
2022-11-12T16:24:06.540Z,99.26
2022-11-12T16:25:06.064Z,99.06
2022-11-12T16:26:06.288Z,98.63
2022-11-12T16:27:06.357Z,99.01
2022-11-12T16:28:06.144Z,98.73
2022-11-12T16:29:06.340Z,98.92
2022-11-12T16:30:06.354Z,98.92
2022-11-12T16:31:07.062Z,98.54
2022-11-12T16:32:06.111Z,98.92
2022-11-12T16:33:06.118Z,98.82
2022-11-12T16:34:06.133Z,98.73
2022-11-12T16:35:06.137Z,98.73
2022-11-12T16:36:06.143Z,99.49
2022-11-12T16:37:06.155Z,99.3
2022-11-12T16:38:06.161Z,99.99
2022-11-12T16:39:06.377Z,99.99
2022-11-12T16:40:06.888Z,99.99
2022-11-12T16:41:06.293Z,99.99
2022-11-12T16:42:06.490Z,99.99
2022-11-12T16:43:06.512Z,99.99
2022-11-12T16:44:06.479Z,99.99
2022-11-12T16:45:06.774Z,99.99
2022-11-12T16:46:06.239Z,99.99
2022-11-12T16:47:06.242Z,99.99
2022-11-12T16:48:06.497Z,99.99
2022-11-12T16:49:06.244Z,99.99
2022-11-12T16:50:06.355Z,99.99
2022-11-12T16:51:07.271Z,99.99
2022-11-12T16:52:06.513Z,99.99
2022-11-12T16:53:06.374Z,99.99
2022-11-12T16:54:06.555Z,99.99
2022-11-12T16:55:07.243Z,99.99
2022-11-12T16:56:07.098Z,99.99
2022-11-12T16:57:07.054Z,99.99
2022-11-12T16:58:06.329Z,99.99
2022-11-12T16:59:06.384Z,99.99
2022-11-12T17:00:06.323Z,99.99
2022-11-12T17:01:06.488Z,99.99
2022-11-12T17:02:06.353Z,99.99
2022-11-12T17:03:06.610Z,99.99
2022-11-12T17:04:06.447Z,99.99
2022-11-12T17:05:06.629Z,99.99
2022-11-12T17:06:06.381Z,99.99
2022-11-12T17:07:06.680Z,99.99
2022-11-12T17:08:06.516Z,99.99
2022-11-12T17:09:06.415Z,99.99
2022-11-12T17:10:06.411Z,99.99
2022-11-12T17:11:06.407Z,99.99
2022-11-12T17:12:06.937Z,99.99
2022-11-12T17:13:06.422Z,99.99
2022-11-12T17:14:06.613Z,99.99
2022-11-12T17:15:06.545Z,99.99
2022-11-12T17:16:06.442Z,99.99
2022-11-12T17:17:06.447Z,99.99
2022-11-12T17:18:06.448Z,99.99
2022-11-12T17:19:06.628Z,99.99
2022-11-12T17:20:07.084Z,99.99
2022-11-12T17:21:07.110Z,99.99
2022-11-12T17:22:06.606Z,99.99
2022-11-12T17:23:06.995Z,99.99
2022-11-12T17:24:06.514Z,99.99
2022-11-12T17:25:07.067Z,99.99
2022-11-12T17:26:06.510Z,99.99
2022-11-12T17:27:06.524Z,99.99
2022-11-12T17:28:07.171Z,99.99
2022-11-12T17:29:10.720Z,99.99
2022-11-12T17:30:06.803Z,99.99
2022-11-12T17:31:06.814Z,99.99
2022-11-12T17:32:06.565Z,99.99
2022-11-12T17:33:06.567Z,99.99
2022-11-12T17:34:06.641Z,99.99
2022-11-12T17:35:07.106Z,99.99
2022-11-12T17:36:06.710Z,99.99
2022-11-12T17:37:06.706Z,99.99
2022-11-12T17:38:06.713Z,99.99
2022-11-12T17:39:06.778Z,99.99
2022-11-12T17:40:06.697Z,99.99
2022-11-12T17:41:06.688Z,99.99
2022-11-12T17:42:06.888Z,99.99
2022-11-12T17:43:06.642Z,99.99
2022-11-12T17:44:07.154Z,99.99
2022-11-12T17:45:06.768Z,99.99
2022-11-12T17:46:06.916Z,99.99
2022-11-12T17:47:06.664Z,99.99